createdAt,value
2016-09-17T00:00:10.584Z,22.7
2016-09-17T00:01:20.588Z,22.63
2016-09-17T00:02:30.878Z,22.63
2016-09-17T00:03:41.190Z,22.7
2016-09-17T00:04:50.872Z,22.67
2016-09-17T00:06:01.178Z,22.63
2016-09-17T00:07:11.181Z,22.54
2016-09-17T00:08:21.488Z,22.54
2016-09-17T00:09:31.467Z,22.55
2016-09-17T00:10:41.462Z,22.59
2016-09-17T00:11:51.448Z,22.59
2016-09-17T00:13:01.445Z,22.52
2016-09-17T00:14:11.739Z,22.46
2016-09-17T00:15:21.725Z,22.51
2016-09-17T00:16:32.012Z,22.48
2016-09-17T00:17:42.008Z,22.51
2016-09-17T00:18:51.990Z,22.49
2016-09-17T00:20:02.306Z,22.48
2016-09-17T00:21:12.305Z,22.42
2016-09-17T00:22:22.281Z,22.48
2016-09-17T00:23:32.277Z,22.45
2016-09-17T00:24:42.259Z,22.41
2016-09-17T00:25:52.590Z,22.41
2016-09-17T00:27:02.576Z,22.45
2016-09-17T00:28:12.253Z,22.39
2016-09-17T00:29:22.538Z,22.44
2016-09-17T00:30:32.836Z,22.44
2016-09-17T00:31:42.820Z,22.45
2016-09-17T00:32:53.106Z,22.45
2016-09-17T00:34:03.389Z,22.34
2016-09-17T00:35:13.066Z,22.27
2016-09-17T00:36:23.041Z,22.26
2016-09-17T00:37:33.043Z,22.31
2016-09-17T00:38:43.337Z,22.23
2016-09-17T00:39:53.622Z,22.15
2016-09-17T00:41:03.911Z,22.12
2016-09-17T00:42:14.198Z,22.14
2016-09-17T00:43:24.178Z,22.08
2016-09-17T00:44:34.476Z,22.09
2016-09-17T00:45:43.862Z,22.07
2016-09-17T00:46:53.536Z,22.04
2016-09-17T00:48:03.508Z,22.09
2016-09-17T00:49:13.798Z,21.99
2016-09-17T00:50:24.084Z,21.99
2016-09-17T00:51:34.065Z,22
2016-09-17T00:52:44.043Z,22.09
2016-09-17T00:53:54.031Z,22.07
2016-09-17T00:55:04.006Z,22.12
2016-09-17T00:56:13.998Z,22.12
2016-09-17T00:57:24.281Z,21.94
2016-09-17T00:58:34.577Z,22.07
2016-09-17T00:59:44.872Z,22
2016-09-17T01:00:54.862Z,22.02
2016-09-17T01:02:04.542Z,21.97
2016-09-17T01:03:14.526Z,21.93
2016-09-17T01:04:24.209Z,21.94
2016-09-17T01:05:33.901Z,21.86
2016-09-17T01:06:43.584Z,21.82
2016-09-17T01:07:53.567Z,21.86
2016-09-17T01:09:03.563Z,21.8
2016-09-17T01:10:12.933Z,21.85
2016-09-17T01:11:23.233Z,21.82
2016-09-17T01:12:32.907Z,21.86
2016-09-17T01:13:42.885Z,21.78
2016-09-17T01:14:53.176Z,21.83
2016-09-17T01:16:03.086Z,21.76
2016-09-17T01:17:13.078Z,21.77
2016-09-17T01:18:23.051Z,21.74
2016-09-17T01:19:33.033Z,21.7
2016-09-17T01:20:43.023Z,21.67
2016-09-17T01:21:52.696Z,21.58
2016-09-17T01:23:02.674Z,21.55
2016-09-17T01:24:12.964Z,21.58
2016-09-17T01:25:23.243Z,21.52
2016-09-17T01:26:33.543Z,21.59
2016-09-17T01:27:43.512Z,21.58
2016-09-17T01:28:53.183Z,21.41
2016-09-17T01:30:03.170Z,21.51
2016-09-17T01:31:13.145Z,21.52
2016-09-17T01:32:23.457Z,21.56
2016-09-17T01:33:33.755Z,21.53
2016-09-17T01:34:43.735Z,21.55
2016-09-17T01:35:54.052Z,21.56
2016-09-17T01:37:03.421Z,21.61
2016-09-17T01:38:13.707Z,21.53
2016-09-17T01:39:23.389Z,21.53
2016-09-17T01:40:33.371Z,21.59
2016-09-17T01:41:43.347Z,21.53
2016-09-17T01:42:53.343Z,21.53
2016-09-17T01:44:03.325Z,21.49
2016-09-17T01:45:13.307Z,21.43
2016-09-17T01:46:23.594Z,21.45
2016-09-17T01:47:33.577Z,21.38
2016-09-17T01:48:43.622Z,21.3
2016-09-17T01:49:53.280Z,21.33
2016-09-17T01:51:03.290Z,21.36
2016-09-17T01:52:13.594Z,21.31
2016-09-17T01:53:23.579Z,21.33
2016-09-17T01:54:33.866Z,21.31
2016-09-17T01:55:44.151Z,21.28
2016-09-17T01:56:54.465Z,21.33
2016-09-17T01:58:04.456Z,21.36
2016-09-17T01:59:14.121Z,21.3
2016-09-17T02:00:24.415Z,21.25
2016-09-17T02:01:34.701Z,21.27
2016-09-17T02:02:45.003Z,21.21
2016-09-17T02:03:54.979Z,21.27
2016-09-17T02:05:04.668Z,21.19
2016-09-17T02:06:14.340Z,21.31
2016-09-17T02:07:24.610Z,21.31
2016-09-17T02:08:34.594Z,21.31
2016-09-17T02:09:44.804Z,21.31
2016-09-17T02:10:55.115Z,21.33
2016-09-17T02:12:05.102Z,21.3
2016-09-17T02:13:15.394Z,21.33
2016-09-17T02:14:25.070Z,21.27
2016-09-17T02:15:35.067Z,21.36
2016-09-17T02:16:44.134Z,21.3
2016-09-17T02:17:54.116Z,21.37
2016-09-17T02:19:03.783Z,21.36
2016-09-17T02:20:13.779Z,21.36
2016-09-17T02:21:23.782Z,21.34
2016-09-17T02:22:34.077Z,21.4
2016-09-17T02:23:43.754Z,21.4
2016-09-17T02:24:53.734Z,21.41
2016-09-17T02:26:03.727Z,21.43
2016-09-17T02:27:14.025Z,21.49
2016-09-17T02:28:24.007Z,21.48
2016-09-17T02:29:34.303Z,21.43
2016-09-17T02:30:44.277Z,21.45
2016-09-17T02:31:54.558Z,21.45
2016-09-17T02:33:04.852Z,21.49
2016-09-17T02:34:15.130Z,21.49
2016-09-17T02:35:25.424Z,21.48
2016-09-17T02:36:35.723Z,21.52
2016-09-17T02:37:45.703Z,21.51
2016-09-17T02:38:56.001Z,21.51
2016-09-17T02:40:06.284Z,21.49
2016-09-17T02:41:16.586Z,21.52
2016-09-17T02:42:26.597Z,21.52
2016-09-17T02:43:36.879Z,21.52
2016-09-17T02:44:46.861Z,21.49
2016-09-17T02:45:56.850Z,21.56
2016-09-17T02:47:07.141Z,21.55
2016-09-17T02:48:17.120Z,21.49
2016-09-17T02:49:27.122Z,21.49
2016-09-17T02:50:37.103Z,21.52
2016-09-17T02:51:47.076Z,21.56
2016-09-17T02:52:57.362Z,21.58
2016-09-17T02:54:06.715Z,21.55
2016-09-17T02:55:17.014Z,21.62
2016-09-17T02:56:27.293Z,21.59
2016-09-17T02:57:37.583Z,21.64
2016-09-17T02:58:47.568Z,21.68
2016-09-17T02:59:56.954Z,21.7
2016-09-17T03:32:21.762Z,18.76
2016-09-17T03:33:31.736Z,18.71
2016-09-17T03:34:41.718Z,18.63
2016-09-17T03:35:51.705Z,18.74
2016-09-17T03:37:01.988Z,18.75
2016-09-17T03:38:11.040Z,18.84
2016-09-17T03:39:21.017Z,18.96
2016-09-17T03:40:30.709Z,19.07
2016-09-17T03:41:40.404Z,19.25
2016-09-17T03:42:50.396Z,19.45
2016-09-17T03:44:00.368Z,19.55
2016-09-17T03:45:10.657Z,19.64
2016-09-17T03:46:20.634Z,19.78
2016-09-17T03:47:30.628Z,19.95
2016-09-17T03:48:40.919Z,20.05
2016-09-17T03:49:51.195Z,20.18
2016-09-17T03:51:01.181Z,20.34
2016-09-17T03:52:10.852Z,20.37
2016-09-17T03:53:21.139Z,20.42
2016-09-17T03:54:31.427Z,20.54
2016-09-17T03:55:41.723Z,20.68
2016-09-17T03:56:52.020Z,20.71
2016-09-17T03:58:01.991Z,20.75
2016-09-17T03:59:12.268Z,20.86
2016-09-17T04:00:22.251Z,20.88
2016-09-17T04:01:31.943Z,20.98
2016-09-17T04:02:42.240Z,21.01
2016-09-17T04:03:51.927Z,21.08
2016-09-17T04:05:01.933Z,21.19
2016-09-17T04:06:11.904Z,21.18
2016-09-17T04:07:21.885Z,21.16
2016-09-17T04:08:32.167Z,21.19
2016-09-17T04:09:42.153Z,21.19
2016-09-17T04:10:52.446Z,21.27
2016-09-17T04:12:02.742Z,21.3
2016-09-17T04:13:12.713Z,21.22
2016-09-17T04:14:23.002Z,21.34
2016-09-17T04:15:33.292Z,21.36
2016-09-17T04:16:43.285Z,21.33
2016-09-17T04:17:53.267Z,21.34
2016-09-17T04:19:03.558Z,21.49
2016-09-17T04:20:13.860Z,21.37
2016-09-17T04:21:24.172Z,21.38
2016-09-17T04:22:34.467Z,21.41
2016-09-17T04:23:44.443Z,21.43
2016-09-17T04:24:54.430Z,21.51
2016-09-17T04:26:04.422Z,21.49
2016-09-17T04:27:14.403Z,21.51
2016-09-17T04:28:24.699Z,21.59
2016-09-17T04:29:34.987Z,21.56
2016-09-17T04:30:45.278Z,21.59
2016-09-17T04:31:55.571Z,21.56
2016-09-17T04:33:05.867Z,21.62
2016-09-17T04:34:15.848Z,21.64
2016-09-17T04:35:26.129Z,21.62
2016-09-17T04:36:36.113Z,21.64
2016-09-17T04:37:46.412Z,21.73
2016-09-17T04:38:56.397Z,21.76
2016-09-17T04:40:06.087Z,21.85
2016-09-17T04:41:15.449Z,21.89
2016-09-17T04:42:25.733Z,21.97
2016-09-17T04:43:35.726Z,21.99
2016-09-17T04:44:45.717Z,21.96
2016-09-17T04:45:56.011Z,22.02
2016-09-17T04:47:05.992Z,21.94
2016-09-17T04:48:15.968Z,21.99
2016-09-17T04:49:26.262Z,22.09
2016-09-17T04:50:36.628Z,22.2
2016-09-17T04:51:46.908Z,22.14
2016-09-17T04:52:56.582Z,22.14
2016-09-17T04:54:06.571Z,22.18
2016-09-17T04:55:16.559Z,22.2
2016-09-17T04:56:26.545Z,22.24
2016-09-17T04:57:36.218Z,22.09
2016-09-17T04:58:45.880Z,22.14
2016-09-17T04:59:56.165Z,22.14
2016-09-17T05:01:05.852Z,22.23
2016-09-17T05:02:15.523Z,22.23
2016-09-17T05:03:25.197Z,22.23
2016-09-17T05:04:35.491Z,22.34
2016-09-17T05:05:45.472Z,22.38
2016-09-17T05:06:55.780Z,22.42
2016-09-17T05:08:05.468Z,22.51
2016-09-17T05:09:15.144Z,22.52
2016-09-17T05:10:25.451Z,22.54
2016-09-17T05:11:35.758Z,22.49
2016-09-17T05:12:45.756Z,22.63
2016-09-17T05:13:56.046Z,22.63
2016-09-17T05:15:06.333Z,22.66
2016-09-17T05:16:16.624Z,22.69
2016-09-17T05:17:26.930Z,22.64
2016-09-17T05:18:36.920Z,22.75
2016-09-17T05:19:47.216Z,22.75
2016-09-17T05:20:57.222Z,22.76
2016-09-17T05:22:07.545Z,22.76
2016-09-17T05:23:17.832Z,22.82
2016-09-17T05:24:27.819Z,22.89
2016-09-17T05:25:37.804Z,22.89
2016-09-17T05:26:48.111Z,22.91
2016-09-17T05:27:58.091Z,23.04
2016-09-17T05:29:07.770Z,23
2016-09-17T05:30:17.760Z,22.94
2016-09-17T05:31:27.435Z,22.89
2016-09-17T05:32:36.497Z,22.99
2016-09-17T05:33:46.794Z,23.06
2016-09-17T05:34:56.776Z,22.96
2016-09-17T05:36:06.442Z,23.04
2016-09-17T05:37:16.410Z,23.16
2016-09-17T05:38:26.391Z,23.12
2016-09-17T05:39:36.379Z,23.28
2016-09-17T05:40:46.678Z,23.26
2016-09-17T05:41:56.679Z,23.25
2016-09-17T05:43:06.972Z,23.4
2016-09-17T05:44:16.955Z,23.34
2016-09-17T05:45:26.939Z,23.48
2016-09-17T05:46:36.919Z,23.42
2016-09-17T05:47:47.199Z,23.47
2016-09-17T05:48:57.185Z,23.4
2016-09-17T05:50:07.488Z,23.48
2016-09-17T05:51:17.474Z,23.35
2016-09-17T05:52:27.463Z,23.38
2016-09-17T05:53:37.750Z,23.41
2016-09-17T05:54:48.049Z,23.35
2016-09-17T05:55:58.345Z,23.42
2016-09-17T05:57:08.331Z,23.44
2016-09-17T05:58:18.000Z,23.48
2016-09-17T05:59:27.673Z,23.53
2016-09-17T06:00:37.341Z,23.56
2016-09-17T06:01:47.004Z,23.56
2016-09-17T06:02:57.305Z,23.52
2016-09-17T06:04:07.603Z,23.55
2016-09-17T06:05:17.288Z,23.53
2016-09-17T06:06:27.583Z,23.59
2016-09-17T06:07:37.566Z,23.64
2016-09-17T06:08:47.548Z,23.6
2016-09-17T06:09:57.227Z,23.71
2016-09-17T06:11:07.208Z,23.74
2016-09-17T06:12:17.201Z,23.72
2016-09-17T06:13:27.491Z,23.79
2016-09-17T06:14:37.493Z,23.72
2016-09-17T06:15:47.481Z,23.74
2016-09-17T06:16:57.460Z,23.79
2016-09-17T06:18:07.462Z,23.79
2016-09-17T06:19:17.451Z,23.75
2016-09-17T06:20:27.761Z,23.79
2016-09-17T06:21:37.757Z,23.82
2016-09-17T06:22:48.045Z,23.81
2016-09-17T06:23:58.337Z,23.81
2016-09-17T06:25:08.644Z,23.75
2016-09-17T06:26:18.619Z,23.78
2016-09-17T06:27:28.600Z,23.71
2016-09-17T06:28:38.276Z,23.55
2016-09-17T06:29:48.556Z,23.41
2016-09-17T06:30:58.857Z,23.14
2016-09-17T06:32:08.852Z,23.06
2016-09-17T06:33:18.520Z,22.91
2016-09-17T06:34:28.817Z,22.81
2016-09-17T06:35:39.106Z,22.69
2016-09-17T06:36:48.788Z,22.57
2016-09-17T06:37:58.801Z,22.57
2016-09-17T06:39:08.788Z,22.59
2016-09-17T06:40:19.106Z,22.51
2016-09-17T06:41:29.104Z,22.69
2016-09-17T06:42:38.779Z,22.75
2016-09-17T06:43:48.779Z,22.82
2016-09-17T06:44:58.470Z,22.81
2016-09-17T06:46:08.457Z,22.97
2016-09-17T06:47:18.450Z,23.01
2016-09-17T06:48:28.782Z,23.03
2016-09-17T06:49:38.749Z,23.16
2016-09-17T06:50:48.729Z,23.25
2016-09-17T06:51:58.713Z,23.35
2016-09-17T06:53:09.003Z,23.45
2016-09-17T06:54:19.304Z,23.66
2016-09-17T06:55:29.290Z,23.72
2016-09-17T06:56:38.961Z,23.94
2016-09-17T06:57:49.242Z,24.03
2016-09-17T06:58:59.235Z,24.26
2016-09-17T07:00:09.227Z,24.3
2016-09-17T07:01:19.224Z,24.64
2016-09-17T07:02:29.201Z,24.74
2016-09-17T07:03:38.564Z,24.85
2016-09-17T07:04:48.544Z,24.85
2016-09-17T07:05:58.535Z,24.97
2016-09-17T07:07:08.512Z,24.92
2016-09-17T07:08:18.829Z,24.78
2016-09-17T07:09:28.846Z,24.83
2016-09-17T07:10:38.836Z,24.85
2016-09-17T07:11:48.816Z,24.9
2016-09-17T07:12:59.115Z,25.04
2016-09-17T07:14:09.407Z,25.12
2016-09-17T07:15:19.397Z,25.33
2016-09-17T07:16:29.410Z,25.49
2016-09-17T07:17:39.707Z,25.64
2016-09-17T07:18:49.998Z,25.7
2016-09-17T07:20:00.311Z,25.79
2016-09-17T07:21:10.603Z,25.82
2016-09-17T07:22:20.610Z,25.86
2016-09-17T07:23:30.934Z,25.85
2016-09-17T07:24:40.621Z,25.88
2016-09-17T07:25:50.619Z,25.94
2016-09-17T07:27:00.921Z,26.12
2016-09-17T07:28:11.216Z,26.32
2016-09-17T07:29:21.533Z,26.54
2016-09-17T07:30:31.539Z,26.76
2016-09-17T07:31:41.847Z,26.94
2016-09-17T07:32:52.156Z,26.93
2016-09-17T07:34:02.462Z,27.06
2016-09-17T07:35:12.452Z,27.09
2016-09-17T07:36:22.754Z,27.26
2016-09-17T07:37:33.078Z,27.21
2016-09-17T07:38:43.378Z,27.28
2016-09-17T07:39:53.379Z,27.24
2016-09-17T07:41:02.749Z,27.26
2016-09-17T07:42:13.058Z,27.23
2016-09-17T07:43:23.344Z,27.11
2016-09-17T07:44:33.022Z,26.96
2016-09-17T07:45:43.372Z,26.89
2016-09-17T07:46:53.049Z,26.68
2016-09-17T07:48:03.335Z,26.53
2016-09-17T07:49:13.315Z,26.42
2016-09-17T07:50:22.989Z,26.32
2016-09-17T07:51:33.292Z,26.39
2016-09-17T07:52:43.700Z,26.44
2016-09-17T07:53:53.721Z,26.6
2016-09-17T07:55:04.031Z,26.78
2016-09-17T07:56:14.015Z,26.97
2016-09-17T07:57:23.691Z,27.19
2016-09-17T07:58:34.008Z,27.43
2016-09-17T07:59:44.303Z,27.59
2016-09-17T08:00:54.608Z,27.66
2016-09-17T08:02:04.911Z,27.69
2016-09-17T08:03:14.583Z,27.89
2016-09-17T08:04:24.865Z,27.98
2016-09-17T08:05:35.185Z,27.99
2016-09-17T08:06:45.184Z,28.08
2016-09-17T08:07:55.474Z,28.35
2016-09-17T08:09:05.476Z,28.49
2016-09-17T08:10:15.462Z,28.63
2016-09-17T08:11:25.446Z,28.64
2016-09-17T08:12:35.435Z,28.58
2016-09-17T08:13:45.118Z,28.46
2016-09-17T08:14:55.649Z,28.41
2016-09-17T08:16:05.971Z,28.39
2016-09-17T08:17:15.954Z,28.36
2016-09-17T08:18:25.935Z,28.48
2016-09-17T08:19:36.220Z,28.57
2016-09-17T08:20:45.913Z,28.67
2016-09-17T08:21:55.899Z,28.65
2016-09-17T08:23:05.907Z,28.7
2016-09-17T08:24:15.604Z,28.51
2016-09-17T08:25:25.895Z,28.23
2016-09-17T08:26:36.197Z,28.14
2016-09-17T08:27:46.512Z,27.98
2016-09-17T08:28:56.525Z,27.68
2016-09-17T08:30:06.825Z,27.61
2016-09-17T08:31:17.149Z,27.72
2016-09-17T08:32:27.444Z,27.83
2016-09-17T08:33:37.448Z,28.01
2016-09-17T08:34:47.477Z,28.14
2016-09-17T08:35:57.775Z,28.16
2016-09-17T08:37:07.460Z,28.21
2016-09-17T08:38:17.758Z,28.43
2016-09-17T08:39:27.744Z,28.57
2016-09-17T08:40:38.041Z,28.65
2016-09-17T08:41:48.343Z,28.67
2016-09-17T08:42:58.642Z,28.94
2016-09-17T08:44:08.947Z,29.23
2016-09-17T08:45:18.944Z,29.4
2016-09-17T08:46:28.657Z,29.42
2016-09-17T08:47:38.945Z,29.43
2016-09-17T08:48:49.238Z,29.73
2016-09-17T08:49:59.231Z,29.81
2016-09-17T08:51:08.908Z,29.82
2016-09-17T08:52:19.223Z,29.72
2016-09-17T08:53:29.229Z,29.75
2016-09-17T08:54:39.510Z,29.81
2016-09-17T08:55:49.489Z,29.81
2016-09-17T08:56:59.480Z,29.63
2016-09-17T08:58:09.764Z,29.42
2016-09-17T08:59:19.459Z,29.15
2016-09-17T09:00:29.742Z,28.82
2016-09-17T09:01:40.031Z,28.63
2016-09-17T09:02:50.420Z,28.31
2016-09-17T09:04:00.728Z,28.21
2016-09-17T09:05:10.720Z,28.14
2016-09-17T09:06:20.764Z,28.12
2016-09-17T09:07:30.756Z,28.02
2016-09-17T09:08:40.747Z,27.83
2016-09-17T09:09:51.050Z,27.65
2016-09-17T09:11:01.041Z,27.46
2016-09-17T09:12:11.583Z,27.12
2016-09-17T09:13:21.569Z,26.94
2016-09-17T09:14:31.266Z,26.71
2016-09-17T09:15:41.563Z,26.54
2016-09-17T09:16:52.100Z,26.41
2016-09-17T09:18:02.414Z,26.42
2016-09-17T09:19:12.083Z,26.41
2016-09-17T09:20:22.065Z,26.32
2016-09-17T09:21:32.380Z,26.31
2016-09-17T09:22:42.378Z,26.3
2016-09-17T09:23:52.669Z,26.35
2016-09-17T09:25:02.653Z,26.37
2016-09-17T09:26:12.944Z,26.41
2016-09-17T09:27:22.626Z,26.44
2016-09-17T09:28:32.607Z,26.64
2016-09-17T09:29:42.908Z,26.74
2016-09-17T09:30:53.202Z,26.76
2016-09-17T09:32:03.502Z,26.72
2016-09-17T09:33:13.783Z,26.74
2016-09-17T09:34:23.765Z,26.71
2016-09-17T09:35:34.077Z,26.75
2016-09-17T09:36:44.363Z,26.76
2016-09-17T09:37:54.700Z,26.87
2016-09-17T09:39:04.079Z,26.93
2016-09-17T09:40:14.386Z,27
2016-09-17T09:41:24.688Z,27.12
2016-09-17T09:42:34.684Z,27.46
2016-09-17T09:43:44.985Z,27.94
2016-09-17T09:44:54.659Z,28.2
2016-09-17T09:46:04.963Z,28.39
2016-09-17T09:47:14.639Z,28.58
2016-09-17T09:48:24.635Z,28.88
2016-09-17T09:49:34.638Z,29.03
2016-09-17T09:50:44.650Z,29.38
2016-09-17T09:51:54.639Z,29.95
2016-09-17T09:53:04.639Z,30.25
2016-09-17T09:54:14.335Z,30.29
2016-09-17T09:55:23.693Z,30.16
2016-09-17T09:56:34.020Z,29.97
2016-09-17T09:57:44.029Z,29.43
2016-09-17T09:58:54.012Z,29.23
2016-09-17T10:00:04.326Z,29.01
2016-09-17T10:01:14.020Z,28.68
2016-09-17T10:02:24.332Z,28.45
2016-09-17T10:03:34.623Z,28.17
2016-09-17T10:04:44.312Z,28.01
2016-09-17T10:05:54.321Z,27.99
2016-09-17T10:07:04.621Z,27.99
2016-09-17T10:08:15.124Z,27.89
2016-09-17T10:09:25.137Z,27.59
2016-09-17T10:10:35.122Z,27.21
2016-09-17T10:11:45.118Z,26.96
2016-09-17T10:12:55.423Z,26.59
2016-09-17T10:14:05.728Z,26.31
2016-09-17T10:15:16.018Z,26.16
2016-09-17T10:16:26.311Z,25.99
2016-09-17T10:17:36.616Z,25.79
2016-09-17T10:18:46.599Z,25.78
2016-09-17T10:19:56.620Z,25.57
2016-09-17T10:21:06.937Z,25.56
2016-09-17T10:22:16.936Z,25.49
2016-09-17T10:23:27.235Z,25.41
2016-09-17T10:24:37.228Z,25.23
2016-09-17T10:25:46.919Z,25.09
2016-09-17T10:26:56.905Z,25.17
2016-09-17T10:28:07.202Z,25.15
2016-09-17T10:29:17.219Z,25.08
2016-09-17T10:30:27.517Z,25.37
2016-09-17T10:31:37.212Z,25.63
2016-09-17T10:32:47.518Z,25.84
2016-09-17T10:33:57.502Z,26.16
2016-09-17T10:35:07.508Z,26.52
2016-09-17T10:36:17.190Z,26.96
2016-09-17T10:37:26.870Z,27.12
2016-09-17T10:38:36.862Z,27.37
2016-09-17T10:39:46.874Z,27.75
2016-09-17T10:40:57.166Z,27.86
2016-09-17T10:42:07.522Z,27.96
2016-09-17T10:43:17.819Z,28.03
2016-09-17T10:44:27.833Z,27.93
2016-09-17T10:45:38.125Z,27.86
2016-09-17T10:46:48.456Z,27.69
2016-09-17T10:47:58.459Z,27.49
2016-09-17T10:49:08.128Z,27.12
2016-09-17T10:50:17.814Z,26.79
2016-09-17T10:51:28.115Z,26.44
2016-09-17T10:52:38.418Z,26.3
2016-09-17T10:53:48.733Z,26.23
2016-09-17T10:54:58.739Z,26.15
2016-09-17T10:56:09.027Z,26.03
2016-09-17T10:57:19.038Z,25.96
2016-09-17T10:58:29.330Z,25.91
2016-09-17T10:59:39.309Z,25.84
2016-09-17T11:00:48.674Z,25.79
2016-09-17T11:01:59.000Z,25.84
2016-09-17T11:03:08.698Z,25.76
2016-09-17T11:04:19.007Z,25.71
2016-09-17T11:05:29.317Z,25.7
2016-09-17T11:06:39.327Z,25.59
2016-09-17T11:07:49.620Z,25.62
2016-09-17T11:08:59.607Z,25.38
2016-09-17T11:10:09.908Z,25.22
2016-09-17T11:11:20.195Z,25.19
2016-09-17T11:12:30.486Z,25.09
2016-09-17T11:13:40.489Z,25.02
2016-09-17T11:14:50.805Z,25.01
2016-09-17T11:16:01.112Z,24.86
2016-09-17T11:17:11.403Z,24.86
2016-09-17T11:18:21.698Z,24.89
2016-09-17T11:19:31.996Z,24.74
2016-09-17T11:20:41.958Z,24.51
2016-09-17T11:21:51.954Z,24.34
2016-09-17T11:23:01.947Z,24.15
2016-09-17T11:24:11.620Z,24.11
2016-09-17T11:25:21.605Z,23.9
2016-09-17T11:26:31.607Z,23.92
2016-09-17T11:27:41.909Z,23.85
2016-09-17T11:28:51.896Z,23.84
2016-09-17T11:30:01.897Z,23.89
2016-09-17T11:31:11.886Z,23.9
2016-09-17T11:32:21.886Z,24.07
2016-09-17T11:33:31.558Z,24.12
2016-09-17T11:34:41.240Z,24.09
2016-09-17T11:35:51.226Z,24.11
2016-09-17T11:37:01.215Z,24.21
2016-09-17T11:38:11.185Z,24.3
2016-09-17T11:39:21.180Z,24.39
2016-09-17T11:40:31.369Z,24.46
2016-09-17T11:41:41.658Z,24.55
2016-09-17T11:42:51.950Z,24.45
2016-09-17T11:44:01.960Z,24.45
2016-09-17T11:45:11.951Z,24.42
2016-09-17T11:46:21.945Z,24.42
2016-09-17T11:47:32.236Z,24.42
2016-09-17T11:48:41.922Z,24.36
2016-09-17T11:49:51.924Z,24.32
2016-09-17T11:51:01.596Z,24.3
2016-09-17T11:52:11.902Z,24.32
2016-09-17T11:53:22.200Z,24.44
2016-09-17T11:54:32.497Z,24.44
2016-09-17T11:55:42.483Z,24.46
2016-09-17T11:56:52.174Z,24.51
2016-09-17T11:58:02.177Z,24.52
2016-09-17T11:59:12.148Z,24.51
2016-09-17T12:00:22.441Z,24.67
2016-09-17T12:01:32.747Z,24.75
2016-09-17T12:02:42.742Z,24.77
2016-09-17T12:03:53.041Z,24.9
2016-09-17T12:05:03.331Z,25.14
2016-09-17T12:06:12.708Z,25.37
2016-09-17T12:07:22.705Z,25.33
2016-09-17T12:08:32.377Z,25.49
2016-09-17T12:09:42.671Z,25.56
2016-09-17T12:10:52.972Z,25.57
2016-09-17T12:12:02.962Z,25.6
2016-09-17T12:13:12.953Z,25.6
2016-09-17T12:14:23.246Z,25.52
2016-09-17T12:15:33.531Z,25.39
2016-09-17T12:16:42.920Z,25.45
2016-09-17T12:17:53.215Z,25.32
2016-09-17T12:19:02.582Z,25.38
2016-09-17T12:20:12.259Z,25.27
2016-09-17T12:21:22.236Z,25.33
2016-09-17T12:22:32.240Z,25.41
2016-09-17T12:23:42.539Z,25.48
2016-09-17T12:24:52.216Z,25.44
2016-09-17T12:26:02.208Z,25.59
2016-09-17T12:27:12.223Z,25.62
2016-09-17T12:28:22.216Z,25.7
2016-09-17T12:29:32.201Z,25.85
2016-09-17T12:30:42.493Z,25.89
2016-09-17T12:31:52.791Z,25.97
2016-09-17T12:33:03.089Z,25.94
2016-09-17T12:34:13.415Z,25.86
2016-09-17T12:35:23.717Z,25.88
2016-09-17T12:36:33.703Z,25.94
2016-09-17T12:37:43.913Z,26
2016-09-17T12:38:54.225Z,25.93
2016-09-17T12:40:03.952Z,25.91
2016-09-17T12:41:13.949Z,25.79
2016-09-17T12:42:23.976Z,25.75
2016-09-17T12:43:33.973Z,25.74
2016-09-17T12:44:43.964Z,25.71
2016-09-17T12:45:53.639Z,25.71
2016-09-17T12:47:03.964Z,25.89
2016-09-17T12:48:14.282Z,25.99
2016-09-17T12:49:23.959Z,26.06
2016-09-17T12:50:33.995Z,26.27
2016-09-17T12:51:43.990Z,26.31
2016-09-17T12:52:53.992Z,26.47
2016-09-17T12:54:03.669Z,26.42
2016-09-17T12:55:13.350Z,26.91
2016-09-17T12:56:23.335Z,26.79
2016-09-17T12:57:33.332Z,26.59
2016-09-17T12:58:43.638Z,26.41
2016-09-17T12:59:53.628Z,26.17
2016-09-17T13:01:03.753Z,26.01
2016-09-17T13:02:14.035Z,25.74
2016-09-17T13:03:24.330Z,25.71
2016-09-17T13:04:34.643Z,25.57
2016-09-17T13:05:44.948Z,25.57
2016-09-17T13:06:54.916Z,25.41
2016-09-17T13:08:04.579Z,25.17
2016-09-17T13:09:14.870Z,25.17
2016-09-17T13:10:25.175Z,25.01
2016-09-17T13:11:35.157Z,24.9
2016-09-17T13:12:45.164Z,24.83
2016-09-17T13:13:55.172Z,24.75
2016-09-17T13:15:05.459Z,24.7
2016-09-17T13:16:15.160Z,24.59
2016-09-17T13:17:25.451Z,24.27
2016-09-17T13:18:35.444Z,24.17
2016-09-17T13:19:45.149Z,24.04
2016-09-17T13:20:55.150Z,23.97
2016-09-17T13:22:05.154Z,23.99
2016-09-17T13:23:15.136Z,23.97
2016-09-17T13:24:25.443Z,23.97
2016-09-17T13:25:35.671Z,24
2016-09-17T13:26:45.657Z,24.02
2016-09-17T13:27:55.630Z,23.96
2016-09-17T13:29:05.311Z,23.85
2016-09-17T13:30:15.325Z,23.82
2016-09-17T13:31:25.306Z,23.71
2016-09-17T13:32:35.604Z,23.67
2016-09-17T13:33:45.910Z,23.62
2016-09-17T13:34:55.899Z,23.66
2016-09-17T13:36:05.277Z,23.67
2016-09-17T13:37:15.608Z,23.56
2016-09-17T13:38:25.899Z,23.75
2016-09-17T13:39:35.890Z,23.67
2016-09-17T13:40:46.184Z,23.85
2016-09-17T13:41:56.169Z,23.93
2016-09-17T13:43:06.478Z,24.29
2016-09-17T13:44:16.781Z,24.54
2016-09-17T13:45:27.096Z,24.86
2016-09-17T13:46:37.399Z,24.83
2016-09-17T13:47:47.395Z,24.77
2016-09-17T13:48:57.089Z,24.54
2016-09-17T13:50:07.386Z,24.39
2016-09-17T13:51:17.382Z,24.32
2016-09-17T13:52:27.672Z,24.29
2016-09-17T13:53:37.979Z,24.33
2016-09-17T13:54:47.671Z,24.29
2016-09-17T13:55:57.973Z,24.48
2016-09-17T13:57:07.955Z,24.56
2016-09-17T13:58:17.948Z,24.55
2016-09-17T13:59:28.242Z,24.67
2016-09-17T14:00:38.753Z,24.66
2016-09-17T14:01:49.064Z,24.56
2016-09-17T14:02:58.443Z,24.55
2016-09-17T14:04:08.445Z,24.67
2016-09-17T14:05:18.430Z,24.64
2016-09-17T14:06:28.427Z,24.63
2016-09-17T14:07:38.739Z,24.59
2016-09-17T14:08:49.050Z,24.54
2016-09-17T14:09:59.037Z,24.48
2016-09-17T14:11:09.043Z,24.32
2016-09-17T14:12:19.033Z,24.19
2016-09-17T14:13:29.033Z,24.04
2016-09-17T14:14:39.338Z,24
2016-09-17T14:15:49.653Z,24.34
2016-09-17T14:16:59.643Z,24.74
2016-09-17T14:18:09.995Z,24.7
2016-09-17T14:19:19.995Z,24.83
2016-09-17T14:20:30.345Z,25.02
2016-09-17T14:21:40.679Z,25.26
2016-09-17T14:22:50.717Z,25.48
2016-09-17T14:24:00.430Z,25.6
2016-09-17T14:25:10.441Z,25.62
2016-09-17T14:26:20.492Z,25.7
2016-09-17T14:27:30.495Z,25.81
2016-09-17T14:28:40.822Z,25.74
2016-09-17T14:29:51.144Z,25.33
2016-09-17T14:31:01.469Z,25
2016-09-17T14:32:11.510Z,24.82
2016-09-17T14:33:21.534Z,24.86
2016-09-17T14:34:31.882Z,24.71
2016-09-17T14:35:42.234Z,24.89
2016-09-17T14:36:51.961Z,25.17
2016-09-17T14:38:02.535Z,25.41
2016-09-17T14:39:12.869Z,25.3
2016-09-17T14:40:23.197Z,25.14
2016-09-17T14:41:33.249Z,25.05
2016-09-17T14:42:43.593Z,24.87
2016-09-17T14:43:53.950Z,24.89
2016-09-17T14:45:04.331Z,25.01
2016-09-17T14:46:14.382Z,25.17
2016-09-17T14:47:24.422Z,25.02
2016-09-17T14:48:34.761Z,24.87
2016-09-17T14:49:45.138Z,24.83
2016-09-17T14:50:55.477Z,24.78
2016-09-17T14:52:06.016Z,24.52
2016-09-17T14:53:16.380Z,24.29
2016-09-17T14:54:26.407Z,24.15
2016-09-17T14:55:36.439Z,23.92
2016-09-17T14:56:46.770Z,23.78
2016-09-17T14:57:57.178Z,23.67
2016-09-17T14:59:07.233Z,23.6
2016-09-17T15:00:17.271Z,23.64
2016-09-17T15:01:26.981Z,23.62
2016-09-17T15:02:37.005Z,23.66
2016-09-17T15:03:47.563Z,23.62
2016-09-17T15:04:57.900Z,23.67
2016-09-17T15:06:07.920Z,23.79
2016-09-17T15:07:17.615Z,23.72
2016-09-17T15:08:27.940Z,23.74
2016-09-17T15:09:37.960Z,23.7
2016-09-17T15:10:47.987Z,23.66
2016-09-17T15:11:58.015Z,23.7
2016-09-17T15:13:08.037Z,23.64
2016-09-17T15:14:18.063Z,23.64
2016-09-17T15:15:28.407Z,23.57
2016-09-17T15:16:38.143Z,23.53
2016-09-17T15:17:48.459Z,23.44
2016-09-17T15:18:58.484Z,23.45
2016-09-17T15:20:08.868Z,23.41
2016-09-17T15:21:18.643Z,23.42
2016-09-17T15:22:28.973Z,23.57
2016-09-17T15:23:39.355Z,23.5
2016-09-17T15:24:49.675Z,23.52
2016-09-17T15:25:59.734Z,23.37
2016-09-17T15:27:09.862Z,23.28
2016-09-17T15:28:20.035Z,23.12
2016-09-17T15:29:30.417Z,23.1
2016-09-17T15:30:41.014Z,23.01
2016-09-17T15:31:51.360Z,22.89
2016-09-17T15:33:01.757Z,22.88
2016-09-17T15:34:11.821Z,22.88
2016-09-17T15:35:22.155Z,22.88